Albert, Kansas
Current Conditions -  °F | °C
As of 3:35 AM on Friday 31 Oct 2014 (Local Time) from KGBD Reporting Station
Clear Clear  
Wind Chill: -1°   Ceiling: Unl
Heat Index:   Visibility: 10mi
Dew Point: -1°   Wind: 16mph
Humidity: 70%   Direction: 10°N
Pressure: 30.42"   Gusts: NA
Location:  38.45°N, 99.01°W
Report Text: KGBD 310835Z AUTO 01014KT 10SM CLR 04/M01 A3042 RMK AO1
Loading
Personal Weather Stations






























Interactive Weather Map
Tropical Storm Tracking
New forecast layout! Learn more

10-Day Weather Forecast

Advertisements
Track Severe Weather on mobile